Airfield :
LOGIN :

Register | Disclaimer

   EN    FR    IT 

 










Legend :    VFR   Marginal VFR   IFR   Intensive IFR   Very Intensive IFR
Visi :
Ceiling :
>= 8 km
>= 3000ft
5 to 8 km
1000 to 3000 ft
1500m to 5 km
500 to 1000 ft
800 to 1500m
200 to 500 ft
< 800m
< 200 ft
Symbols :   Thunderstorms  Fog  Heavy snow  Heavy precipitations  Wind > 20 kt
SIGMETs :     Misc.  Thunderstorms  Icing  Turbulence  Mountain Waves  Volcanic Ashes






- Airport Elevation : 5600 ft
- IATA code : SMV


LSZS - Samedan

CURRENT METAR :
  • 021750Z AUTO 03009KT 9999 BKN050 11/05 Q1019

EXPIRED METARs :
  • 021720Z AUTO 04005KT 010V080 9999 BKN050 12/04 Q1019
  • 021650Z VRB04KT 9999 SCT055 BKN065 12/04 Q1018 RERA RMK X TL170
  • 021620Z 22007KT 170V260 9999 -RA VCSH SCT050 BKN070 13/04 Q1018 RMK W TL170
  • 021550Z 27007KT 200V320 9999 FEW045 SCT055 BKN070 14/04 Q1018 RMK V TL170
  • 021520Z 10003KT 020V160 9999 FEW055 BKN095 15/04 Q1017 RMK U TL170

TAF TAF LSZS
Valid from the 02 at 15:00 until the 03 at 00:00 UTC


021425Z 0215/0224 21010KT 9999 SCT050 TX15/0215Z
PROB40
TEMPO 0215/0224 SHRA FEW050TCU
BECMG 0217/0219 VRB02KT
ATIS : +41 81 834 93 24



MET'MAP, your aeronautical weather chart ! - Copyright ORBIFLY December 2007 - Disclaimer

ORBIFLY MET'MAP TEAM :

Programming & Development : Alexandra Zaïnal
Concept & original design : Baudouin d'Aumeries
Assistance for programming : Marc-Olivier Méhu
Technical & hardware support : Manuel Goepfert

Contact : metmap@orbifly.com




SOURCES & CREDITS :

   NOAA